createdAt,value
2018-12-27T00:01:12.113Z,123.35
2018-12-27T00:03:38.880Z,118.70
2018-12-27T00:06:05.620Z,43.65
2018-12-27T00:08:32.381Z,64.07
2018-12-27T00:10:59.132Z,58.10
2018-12-27T00:13:25.888Z,65.78
2018-12-27T00:15:52.652Z,54.10
2018-12-27T00:18:19.397Z,73.20
2018-12-27T00:20:46.145Z,70.70
2018-12-27T00:23:12.930Z,79.67
2018-12-27T00:25:39.693Z,92.02
2018-12-27T00:28:06.477Z,38.33
2018-12-27T00:30:33.212Z,105.40
2018-12-27T00:33:03.209Z,58.07
2018-12-27T00:35:26.765Z,86.42
2018-12-27T00:37:53.518Z,73.15
2018-12-27T00:40:20.259Z,56.33
2018-12-27T00:42:47.013Z,131.00
2018-12-27T00:45:13.765Z,81.73
2018-12-27T00:47:40.520Z,77.05
2018-12-27T00:50:07.259Z,105.85
2018-12-27T00:52:34.173Z,92.27
2018-12-27T00:55:01.009Z,83.85
2018-12-27T00:57:27.757Z,32.73
2018-12-27T00:59:54.521Z,86.20
2018-12-27T01:02:21.260Z,64.07
2018-12-27T01:04:48.024Z,79.82
2018-12-27T01:07:14.779Z,93.45
2018-12-27T01:09:41.544Z,43.17
2018-12-27T01:12:08.280Z,88.35
2018-12-27T01:14:35.040Z,66.00
2018-12-27T01:17:01.784Z,37.93
2018-12-27T01:19:28.546Z,61.80
2018-12-27T01:21:55.285Z,72.10
2018-12-27T01:24:22.064Z,53.43
2018-12-27T01:26:48.804Z,62.43
2018-12-27T01:29:15.574Z,57.03
2018-12-27T01:31:42.308Z,66.75
2018-12-27T01:34:09.100Z,72.23
2018-12-27T01:36:35.834Z,67.47
2018-12-27T01:39:04.413Z,45.10
2018-12-27T01:41:31.168Z,53.25
2018-12-27T01:43:57.935Z,81.23
2018-12-27T01:46:24.671Z,63.97
2018-12-27T01:48:51.440Z,76.77
2018-12-27T01:51:18.176Z,77.30
2018-12-27T01:53:44.949Z,65.37
2018-12-27T01:56:11.694Z,48.27
2018-12-27T01:58:38.448Z,53.75
2018-12-27T02:01:05.206Z,48.37
2018-12-27T02:03:31.972Z,54.50
2018-12-27T02:05:59.055Z,48.60
2018-12-27T02:08:25.664Z,79.50
2018-12-27T02:10:52.432Z,55.70
2018-12-27T02:13:19.194Z,78.97
2018-12-27T02:15:45.964Z,51.93
2018-12-27T02:18:12.728Z,59.83
2018-12-27T02:20:39.686Z,52.70
2018-12-27T02:23:06.435Z,67.55
2018-12-27T02:25:33.222Z,76.20
2018-12-27T02:27:59.957Z,72.15
2018-12-27T02:30:26.731Z,58.57
2018-12-27T02:32:53.476Z,63.92
2018-12-27T02:35:20.242Z,53.97
2018-12-27T02:37:46.991Z,63.83
2018-12-27T02:40:13.761Z,56.10
2018-12-27T02:42:40.537Z,75.08
2018-12-27T02:45:07.314Z,61.03
2018-12-27T02:47:34.043Z,69.60
2018-12-27T02:50:00.799Z,74.55
2018-12-27T02:52:27.547Z,60.30
2018-12-27T02:54:54.308Z,66.42
2018-12-27T02:57:21.070Z,62.83
2018-12-27T02:59:47.840Z,76.85
2018-12-27T03:02:14.580Z,65.87
2018-12-27T03:04:41.353Z,74.27
2018-12-27T03:07:08.089Z,51.83
2018-12-27T03:09:34.855Z,87.27
2018-12-27T03:12:01.631Z,82.65
2018-12-27T03:14:28.389Z,68.73
2018-12-27T03:16:55.169Z,87.70
2018-12-27T03:19:21.912Z,97.90
2018-12-27T03:21:48.681Z,80.83
2018-12-27T03:24:15.433Z,74.07
2018-12-27T03:26:42.199Z,148.45
2018-12-27T03:29:08.976Z,134.07
2018-12-27T03:31:35.770Z,94.50
2018-12-27T03:34:02.517Z,100.05
2018-12-27T03:36:29.280Z,86.90
2018-12-27T03:38:56.029Z,78.95
2018-12-27T03:41:22.814Z,67.50
2018-12-27T03:43:49.666Z,76.42
2018-12-27T03:46:16.444Z,86.53
2018-12-27T03:48:43.171Z,74.27
2018-12-27T03:51:09.936Z,93.95
2018-12-27T03:53:36.684Z,115.35
2018-12-27T03:56:03.478Z,77.60
2018-12-27T03:58:30.195Z,83.07
2018-12-27T04:00:56.947Z,83.60
2018-12-27T04:03:23.696Z,65.70
2018-12-27T04:05:50.465Z,74.25
2018-12-27T04:08:17.228Z,65.90
2018-12-27T04:10:43.995Z,84.95
2018-12-27T04:13:10.856Z,72.33
2018-12-27T04:15:37.524Z,86.78
2018-12-27T04:18:04.263Z,87.95
2018-12-27T04:20:31.024Z,78.03
2018-12-27T04:22:57.768Z,94.15
2018-12-27T04:25:24.638Z,88.35
2018-12-27T04:27:51.386Z,74.33
2018-12-27T04:30:18.212Z,81.70
2018-12-27T04:34:21.170Z,91.30
2018-12-27T04:36:47.924Z,101.05
2018-12-27T04:39:14.670Z,95.30
2018-12-27T04:41:41.434Z,96.73
2018-12-27T04:44:08.179Z,80.05
2018-12-27T04:46:34.928Z,83.22
2018-12-27T04:49:01.676Z,70.97
2018-12-27T04:51:28.432Z,73.15
2018-12-27T04:53:55.216Z,60.90
2018-12-27T04:56:21.964Z,89.22
2018-12-27T04:58:48.812Z,101.22
2018-12-27T05:01:15.565Z,78.40
2018-12-27T05:03:42.311Z,99.55
2018-12-27T05:06:09.068Z,98.65
2018-12-27T05:08:35.807Z,89.43
2018-12-27T05:11:02.552Z,95.35
2018-12-27T05:13:29.280Z,80.87
2018-12-27T05:15:56.036Z,64.33
2018-12-27T05:18:22.767Z,74.90
2018-12-27T05:20:49.520Z,74.37
2018-12-27T05:23:16.277Z,64.40
2018-12-27T05:25:43.026Z,77.37
2018-12-27T05:28:09.761Z,82.42
2018-12-27T05:30:36.500Z,55.10
2018-12-27T05:33:03.259Z,76.70
2018-12-27T05:35:29.984Z,77.75
2018-12-27T05:37:56.753Z,56.90
2018-12-27T05:40:23.496Z,64.60
2018-12-27T05:42:50.241Z,66.00
2018-12-27T05:45:16.996Z,56.70
2018-12-27T05:47:43.745Z,70.22
2018-12-27T05:50:10.490Z,76.55
2018-12-27T05:52:37.256Z,55.43
2018-12-27T05:55:04.012Z,64.03
2018-12-27T05:57:30.772Z,50.03
2018-12-27T05:59:57.495Z,68.92
2018-12-27T06:02:24.284Z,66.60
2018-12-27T06:04:51.040Z,52.10
2018-12-27T06:07:17.788Z,64.55
2018-12-27T06:09:44.528Z,72.00
2018-12-27T06:12:11.296Z,68.73
2018-12-27T06:14:38.024Z,87.70
2018-12-27T06:17:04.851Z,110.00
2018-12-27T06:19:31.681Z,54.07
2018-12-27T06:21:58.441Z,62.03
2018-12-27T06:24:25.161Z,68.57
2018-12-27T06:26:51.908Z,56.43
2018-12-27T06:29:18.648Z,65.22
2018-12-27T06:31:45.408Z,84.75
2018-12-27T06:34:12.157Z,71.47
2018-12-27T06:36:38.885Z,78.60
2018-12-27T06:39:06.037Z,74.70
2018-12-27T06:41:32.961Z,50.97
2018-12-27T06:43:59.722Z,67.20
2018-12-27T06:46:26.464Z,73.70
2018-12-27T06:48:53.216Z,54.77
2018-12-27T06:51:19.968Z,60.67
2018-12-27T06:53:46.728Z,60.00
2018-12-27T06:56:13.464Z,47.97
2018-12-27T06:58:40.226Z,54.42
2018-12-27T07:01:06.960Z,56.05
2018-12-27T07:03:33.736Z,47.67
2018-12-27T07:06:00.468Z,53.35
2018-12-27T07:08:27.224Z,53.87
2018-12-27T07:10:53.972Z,42.27
2018-12-27T07:13:20.736Z,54.13
2018-12-27T07:15:47.464Z,54.23
2018-12-27T07:18:14.225Z,42.50
2018-12-27T07:20:40.956Z,55.12
2018-12-27T07:23:07.717Z,49.88
2018-12-27T07:25:34.444Z,51.33
2018-12-27T07:28:01.200Z,48.40
2018-12-27T07:30:27.952Z,45.20
2018-12-27T07:32:54.704Z,48.58
2018-12-27T07:35:21.444Z,47.20
2018-12-27T07:37:48.208Z,54.18
2018-12-27T07:40:14.940Z,54.03
2018-12-27T07:42:41.692Z,49.70
2018-12-27T07:45:08.598Z,47.08
2018-12-27T07:47:35.683Z,44.60
2018-12-27T07:50:02.503Z,43.63
2018-12-27T07:52:29.259Z,41.05
2018-12-27T07:54:56.037Z,39.53
2018-12-27T07:57:22.795Z,43.63
2018-12-27T07:59:49.535Z,43.05
2018-12-27T08:02:16.291Z,38.23
2018-12-27T08:04:43.044Z,40.00
2018-12-27T08:07:09.878Z,42.40
2018-12-27T08:09:36.603Z,34.17
2018-12-27T08:12:03.352Z,43.17
2018-12-27T08:14:30.157Z,43.75
2018-12-27T08:16:56.986Z,43.13
2018-12-27T08:19:23.776Z,48.92
2018-12-27T08:21:50.520Z,46.77
2018-12-27T08:24:17.300Z,46.10
2018-12-27T08:26:44.144Z,40.93
2018-12-27T08:29:10.897Z,42.50
2018-12-27T08:31:37.653Z,47.00
2018-12-27T08:34:04.475Z,48.58
2018-12-27T08:36:31.225Z,44.20
2018-12-27T08:38:57.976Z,48.50
2018-12-27T08:41:24.795Z,44.70
2018-12-27T08:43:51.537Z,51.08
2018-12-27T08:46:18.291Z,57.98
2018-12-27T08:48:45.072Z,47.13
2018-12-27T08:51:11.796Z,57.93
2018-12-27T08:53:38.563Z,44.13
2018-12-27T08:56:05.320Z,56.25
2018-12-27T08:58:32.188Z,47.33
2018-12-27T09:00:58.921Z,55.23
2018-12-27T09:03:25.687Z,53.63
2018-12-27T09:05:52.448Z,57.95
2018-12-27T09:08:20.317Z,58.85
2018-12-27T09:10:47.095Z,53.57
2018-12-27T09:13:13.837Z,56.15
2018-12-27T09:15:40.609Z,47.77
2018-12-27T09:18:07.366Z,49.60
2018-12-27T09:20:34.124Z,49.60
2018-12-27T09:23:00.865Z,56.42
2018-12-27T09:25:27.624Z,55.15
2018-12-27T09:27:54.508Z,50.00
2018-12-27T09:30:21.269Z,52.10
2018-12-27T09:32:48.016Z,49.67
2018-12-27T09:35:14.766Z,57.93
2018-12-27T09:37:41.506Z,50.07
2018-12-27T09:40:08.272Z,56.10
2018-12-27T09:42:35.012Z,59.63
2018-12-27T09:45:01.779Z,51.20
2018-12-27T09:47:28.596Z,57.45
2018-12-27T09:49:55.422Z,45.90
2018-12-27T09:52:22.156Z,51.70
2018-12-27T09:54:48.926Z,51.10
2018-12-27T09:57:15.833Z,64.00
2018-12-27T09:59:42.601Z,58.30
2018-12-27T10:02:09.365Z,52.27
2018-12-27T10:04:36.195Z,60.80
2018-12-27T10:07:02.935Z,61.68
2018-12-27T10:09:29.797Z,55.33
2018-12-27T10:11:56.550Z,62.48
2018-12-27T10:14:23.308Z,55.50
2018-12-27T10:16:50.097Z,63.83
2018-12-27T10:19:16.894Z,72.17
2018-12-27T10:21:43.620Z,73.92
2018-12-27T10:24:10.448Z,59.47
2018-12-27T10:26:37.216Z,65.30
2018-12-27T10:29:03.998Z,59.00
2018-12-27T10:31:30.860Z,53.33
2018-12-27T10:33:57.708Z,62.95
2018-12-27T10:36:24.505Z,70.25
2018-12-27T10:38:52.779Z,57.37
2018-12-27T10:41:19.540Z,73.07
2018-12-27T10:43:46.353Z,66.57
2018-12-27T10:46:13.104Z,84.90
2018-12-27T10:48:39.888Z,79.20
2018-12-27T10:51:06.690Z,84.13
2018-12-27T10:53:33.432Z,91.17
2018-12-27T10:56:00.204Z,76.43
2018-12-27T10:58:26.969Z,82.78
2018-12-27T11:00:53.832Z,70.40
2018-12-27T11:03:20.638Z,62.13
2018-12-27T11:05:48.723Z,66.50
2018-12-27T11:08:14.272Z,71.17
2018-12-27T11:10:41.065Z,62.87
2018-12-27T11:13:07.808Z,73.05
2018-12-27T11:15:34.613Z,64.90
2018-12-27T11:18:01.359Z,70.90
2018-12-27T11:20:28.380Z,63.60
2018-12-27T11:22:55.179Z,67.60
2018-12-27T11:25:21.940Z,69.03
2018-12-27T11:27:48.741Z,68.57
2018-12-27T11:30:15.492Z,73.78
2018-12-27T11:32:42.264Z,68.03
2018-12-27T11:35:09.076Z,82.15
2018-12-27T11:37:35.836Z,69.37
2018-12-27T11:40:02.675Z,80.20
2018-12-27T11:42:29.515Z,69.55
2018-12-27T11:44:56.397Z,66.12
2018-12-27T11:47:23.196Z,63.13
2018-12-27T11:49:49.997Z,66.77
2018-12-27T11:52:17.461Z,58.90
2018-12-27T11:54:44.380Z,64.47
2018-12-27T11:57:11.164Z,63.53
2018-12-27T11:59:37.989Z,56.60
2018-12-27T12:02:04.810Z,56.80
2018-12-27T12:04:31.652Z,49.13
2018-12-27T12:06:58.600Z,59.40
2018-12-27T12:09:26.374Z,57.98
2018-12-27T12:11:54.472Z,51.70
2018-12-27T12:14:20.874Z,56.28
2018-12-27T12:16:47.661Z,52.20
2018-12-27T12:19:14.472Z,54.73
2018-12-27T12:21:41.236Z,48.23
2018-12-27T12:24:08.038Z,41.47
2018-12-27T12:26:34.849Z,44.40
2018-12-27T12:29:02.003Z,46.37
2018-12-27T12:31:28.762Z,47.60
2018-12-27T12:33:55.852Z,43.27
2018-12-27T12:36:22.745Z,47.30
2018-12-27T12:38:49.865Z,45.80
2018-12-27T12:41:16.799Z,50.50
2018-12-27T12:43:43.596Z,44.73
2018-12-27T12:46:10.414Z,52.15
2018-12-27T12:48:37.195Z,59.58
2018-12-27T12:51:04.382Z,48.77
2018-12-27T12:53:33.014Z,52.45
2018-12-27T12:55:59.809Z,52.25
2018-12-27T12:58:26.723Z,46.63
2018-12-27T13:00:53.626Z,53.75
2018-12-27T13:03:20.444Z,49.73
2018-12-27T13:05:47.280Z,46.50
2018-12-27T13:08:14.049Z,57.43
2018-12-27T13:10:40.841Z,52.67
2018-12-27T13:13:07.721Z,40.37
2018-12-27T13:15:34.568Z,43.50
2018-12-27T13:18:01.378Z,47.75
2018-12-27T13:20:28.944Z,38.50
2018-12-27T13:22:55.770Z,43.52
2018-12-27T13:25:22.582Z,40.30
2018-12-27T13:27:49.387Z,34.93
2018-12-27T13:30:16.278Z,36.98
2018-12-27T13:32:43.141Z,40.60
2018-12-27T13:35:09.933Z,31.03
2018-12-27T13:37:36.770Z,36.65
2018-12-27T13:40:03.819Z,37.70
2018-12-27T13:42:30.594Z,34.77
2018-12-27T13:44:57.410Z,39.10
2018-12-27T13:47:24.224Z,41.15
2018-12-27T13:49:51.250Z,40.57
2018-12-27T13:52:18.251Z,49.00
2018-12-27T13:54:45.240Z,44.48
2018-12-27T13:57:16.229Z,43.10
2018-12-27T13:59:43.186Z,44.50
2018-12-27T14:02:10.237Z,47.13
2018-12-27T14:04:37.474Z,39.77
2018-12-27T14:07:04.507Z,44.90
2018-12-27T14:09:31.559Z,41.57
2018-12-27T14:11:58.364Z,42.65
2018-12-27T14:14:25.297Z,43.50
2018-12-27T14:16:52.185Z,46.05
2018-12-27T14:19:19.127Z,46.58
2018-12-27T14:21:46.146Z,42.23
2018-12-27T14:24:13.076Z,47.40
2018-12-27T14:26:40.000Z,48.70
2018-12-27T14:29:06.845Z,100.17
2018-12-27T14:31:33.622Z,49.33
2018-12-27T14:34:00.746Z,42.03
2018-12-27T14:36:27.631Z,49.85
2018-12-27T14:38:54.458Z,41.33
2018-12-27T14:41:21.349Z,46.75
2018-12-27T14:43:48.150Z,57.60
2018-12-27T14:46:14.895Z,48.17
2018-12-27T14:48:41.693Z,53.42
2018-12-27T14:51:08.448Z,49.47
2018-12-27T14:53:35.264Z,55.48
2018-12-27T14:56:02.024Z,51.50
2018-12-27T14:58:28.848Z,48.50
2018-12-27T15:00:55.722Z,54.95
2018-12-27T15:03:22.461Z,57.58
2018-12-27T15:05:49.292Z,60.58
2018-12-27T15:08:16.075Z,60.55
2018-12-27T15:10:42.811Z,62.08
2018-12-27T15:13:09.601Z,50.43
2018-12-27T15:15:36.356Z,59.23
2018-12-27T15:18:03.095Z,60.95
2018-12-27T15:20:29.840Z,52.93
2018-12-27T15:22:56.604Z,59.27
2018-12-27T15:25:23.336Z,56.02
2018-12-27T15:27:50.084Z,56.30
2018-12-27T15:30:16.920Z,68.33
2018-12-27T15:32:43.676Z,71.85
2018-12-27T15:35:10.511Z,61.90
2018-12-27T15:37:37.293Z,56.57
2018-12-27T15:40:05.670Z,55.23
2018-12-27T15:42:30.936Z,66.00
2018-12-27T15:44:57.753Z,46.70
2018-12-27T15:47:24.513Z,65.30
2018-12-27T15:49:51.359Z,55.63
2018-12-27T15:52:18.093Z,59.18
2018-12-27T15:54:44.925Z,49.20
2018-12-27T15:57:11.674Z,59.33
2018-12-27T15:59:38.445Z,54.30
2018-12-27T16:02:05.200Z,52.10
2018-12-27T16:04:31.980Z,49.83
2018-12-27T16:07:02.002Z,49.70
2018-12-27T16:09:26.042Z,54.80
2018-12-27T16:11:52.940Z,53.17
2018-12-27T16:14:19.943Z,49.70
2018-12-27T16:16:46.693Z,54.30
2018-12-27T16:19:13.464Z,51.40
2018-12-27T16:21:40.994Z,57.90
2018-12-27T16:24:07.125Z,56.75
2018-12-27T16:26:33.941Z,50.70
2018-12-27T16:29:00.704Z,54.95
2018-12-27T16:31:27.452Z,53.33
2018-12-27T16:33:54.210Z,57.13
2018-12-27T16:36:20.968Z,54.83
2018-12-27T16:38:47.741Z,51.43
2018-12-27T16:41:14.484Z,58.85
2018-12-27T16:43:41.316Z,57.67
2018-12-27T16:46:08.089Z,47.47
2018-12-27T16:48:35.289Z,53.13
2018-12-27T16:51:02.843Z,54.88
2018-12-27T16:53:29.749Z,53.27
2018-12-27T16:55:56.703Z,49.15
2018-12-27T16:58:23.496Z,56.48
2018-12-27T17:00:50.264Z,44.30
2018-12-27T17:03:17.024Z,55.70
2018-12-27T17:05:43.896Z,59.13
2018-12-27T17:08:10.724Z,60.80
2018-12-27T17:10:37.606Z,46.63
2018-12-27T17:13:04.398Z,59.30
2018-12-27T17:15:31.192Z,63.42
2018-12-27T17:17:58.055Z,59.13
2018-12-27T17:20:24.824Z,64.92
2018-12-27T17:22:51.699Z,64.75
2018-12-27T17:25:18.536Z,67.67
2018-12-27T17:27:45.436Z,55.53
2018-12-27T17:30:12.250Z,60.45
2018-12-27T17:32:39.081Z,71.02
2018-12-27T17:35:06.332Z,56.23
2018-12-27T17:37:33.121Z,67.78
2018-12-27T17:39:59.935Z,68.62
2018-12-27T17:42:26.756Z,57.07
2018-12-27T17:44:55.156Z,65.57
2018-12-27T17:47:22.072Z,61.75
2018-12-27T17:49:49.082Z,58.13
2018-12-27T17:52:16.176Z,61.15
2018-12-27T17:54:43.138Z,61.28
2018-12-27T17:57:10.107Z,57.07
2018-12-27T17:59:36.873Z,66.85
2018-12-27T18:02:03.625Z,69.40
2018-12-27T18:04:30.404Z,68.00
2018-12-27T18:06:57.144Z,56.60
2018-12-27T18:09:23.916Z,61.37
2018-12-27T18:11:50.661Z,61.00
2018-12-27T18:14:17.456Z,53.27
2018-12-27T18:16:44.205Z,66.05
2018-12-27T18:19:11.218Z,62.53
2018-12-27T18:21:38.099Z,56.00
2018-12-27T18:24:04.835Z,57.60
2018-12-27T18:26:31.584Z,59.08
2018-12-27T18:28:58.522Z,53.43
2018-12-27T18:31:25.313Z,64.30
2018-12-27T18:33:52.160Z,68.85
2018-12-27T18:36:19.099Z,63.30
2018-12-27T18:38:46.966Z,70.42
2018-12-27T18:41:13.917Z,62.55
2018-12-27T18:43:41.815Z,68.10
2018-12-27T18:46:08.708Z,64.73
2018-12-27T18:48:36.455Z,72.67
2018-12-27T18:51:03.366Z,70.15
2018-12-27T18:53:30.256Z,62.03
2018-12-27T18:55:57.135Z,75.30
2018-12-27T18:58:24.008Z,74.95
2018-12-27T19:00:51.502Z,62.30
2018-12-27T19:03:18.480Z,72.65
2018-12-27T19:05:45.392Z,73.87
2018-12-27T19:08:12.353Z,70.92
2018-12-27T19:10:40.099Z,58.90
2018-12-27T19:13:12.018Z,71.15
2018-12-27T19:15:47.429Z,51.20
2018-12-27T19:18:22.183Z,57.70
2018-12-27T19:20:53.185Z,54.10
2018-12-27T19:23:20.836Z,62.88
2018-12-27T19:25:47.967Z,64.03
2018-12-27T19:28:14.938Z,58.90
2018-12-27T19:30:41.806Z,60.90
2018-12-27T19:33:08.939Z,62.00
2018-12-27T19:35:35.845Z,55.60
2018-12-27T19:38:02.678Z,57.67
2018-12-27T19:40:29.529Z,51.77
2018-12-27T19:42:56.481Z,56.50
2018-12-27T19:45:23.329Z,60.43
2018-12-27T19:47:50.204Z,49.90
2018-12-27T19:50:16.985Z,59.00
2018-12-27T19:52:43.852Z,59.42
2018-12-27T19:55:10.809Z,53.00
2018-12-27T19:57:37.629Z,62.20
2018-12-27T20:00:04.520Z,61.53
2018-12-27T20:02:31.403Z,52.70
2018-12-27T20:04:58.236Z,60.00
2018-12-27T20:07:25.100Z,61.35
2018-12-27T20:09:51.956Z,51.67
2018-12-27T20:12:18.936Z,60.43
2018-12-27T20:14:46.051Z,54.67
2018-12-27T20:17:12.926Z,60.90
2018-12-27T20:19:39.764Z,59.45
2018-12-27T20:22:06.624Z,56.77
2018-12-27T20:24:33.640Z,61.02
2018-12-27T20:27:00.491Z,56.93
2018-12-27T20:29:27.342Z,56.58
2018-12-27T20:31:54.184Z,54.00
2018-12-27T20:34:21.026Z,61.15
2018-12-27T20:36:48.568Z,66.30
2018-12-27T20:39:15.399Z,52.13
2018-12-27T20:41:42.281Z,60.80
2018-12-27T20:44:09.205Z,59.38
2018-12-27T20:46:36.030Z,53.80
2018-12-27T20:49:02.883Z,62.00
2018-12-27T20:51:30.556Z,66.10
2018-12-27T20:53:57.378Z,61.50
2018-12-27T20:56:24.915Z,64.77
2018-12-27T20:58:51.071Z,64.90
2018-12-27T21:01:18.701Z,62.40
2018-12-27T21:03:45.604Z,67.60
2018-12-27T21:06:12.625Z,62.87
2018-12-27T21:08:40.233Z,64.17
2018-12-27T21:11:07.155Z,57.63
2018-12-27T21:13:34.484Z,67.82
2018-12-27T21:16:01.526Z,78.25
2018-12-27T21:18:29.393Z,74.53
2018-12-27T21:20:56.239Z,77.87
2018-12-27T21:23:23.528Z,65.70
2018-12-27T21:25:50.360Z,76.35
2018-12-27T21:28:17.278Z,78.78
2018-12-27T21:30:44.164Z,70.40
2018-12-27T21:33:11.060Z,66.45
2018-12-27T21:35:37.933Z,73.40
2018-12-27T21:38:04.801Z,71.25
2018-12-27T21:40:31.658Z,68.10
2018-12-27T21:42:58.534Z,82.15
2018-12-27T21:45:25.365Z,66.73
2018-12-27T21:47:52.267Z,78.60
2018-12-27T21:50:19.111Z,67.67
2018-12-27T21:52:46.009Z,78.97
2018-12-27T21:55:12.839Z,68.87
2018-12-27T21:57:39.656Z,83.72
2018-12-27T22:00:07.036Z,79.17
2018-12-27T22:02:33.951Z,68.00
2018-12-27T22:05:00.816Z,76.12
2018-12-27T22:07:27.601Z,76.33
2018-12-27T22:09:54.348Z,78.55
2018-12-27T22:12:21.211Z,63.93
2018-12-27T22:14:48.201Z,78.90
2018-12-27T22:17:16.486Z,59.83
2018-12-27T22:19:43.349Z,68.83
2018-12-27T22:22:10.221Z,69.22
2018-12-27T22:24:37.024Z,70.50
2018-12-27T22:27:03.807Z,70.90
2018-12-27T22:29:30.712Z,82.27
2018-12-27T22:31:57.512Z,67.97
2018-12-27T22:34:24.336Z,74.07
2018-12-27T22:36:51.173Z,68.70
2018-12-27T22:39:17.985Z,79.00
2018-12-27T22:41:44.816Z,76.72
2018-12-27T22:44:11.625Z,72.80
2018-12-27T22:46:38.419Z,87.22
2018-12-27T22:49:05.233Z,79.20
2018-12-27T22:51:32.001Z,71.53
2018-12-27T22:53:58.766Z,78.57
2018-12-27T22:56:25.708Z,77.43
2018-12-27T22:58:52.568Z,84.05
2018-12-27T23:01:19.340Z,77.97
2018-12-27T23:03:46.160Z,82.72
2018-12-27T23:06:13.240Z,67.73
2018-12-27T23:08:43.194Z,74.35
2018-12-27T23:11:06.849Z,68.50
2018-12-27T23:13:33.627Z,85.92
2018-12-27T23:16:00.451Z,78.60
2018-12-27T23:18:27.324Z,91.22
2018-12-27T23:20:54.124Z,79.43
2018-12-27T23:23:20.920Z,80.67
2018-12-27T23:25:47.709Z,68.00
2018-12-27T23:28:16.325Z,56.63
2018-12-27T23:30:43.107Z,72.80
2018-12-27T23:33:09.922Z,62.93
2018-12-27T23:35:36.708Z,75.55
2018-12-27T23:38:03.527Z,84.72
2018-12-27T23:40:30.541Z,71.63
2018-12-27T23:42:57.374Z,74.62
2018-12-27T23:45:24.429Z,82.05
2018-12-27T23:47:51.574Z,81.60
2018-12-27T23:50:18.403Z,79.95
2018-12-27T23:52:45.147Z,89.80
2018-12-27T23:55:11.988Z,92.90
2018-12-27T23:57:38.777Z,107.25
